sensor_id;sensor_type;location;lat;lon;timestamp;P1;durP1;ratioP1;P2;durP2;ratioP2
27539;SDS011;15906;52.046;4.724;2022-12-29T00:01:15;4.03;;;1.70;;
27539;SDS011;15906;52.046;4.724;2022-12-29T00:03:41;2.13;;;1.65;;
27539;SDS011;15906;52.046;4.724;2022-12-29T00:06:07;1.70;;;1.40;;
27539;SDS011;15906;52.046;4.724;2022-12-29T00:08:32;3.55;;;1.70;;
27539;SDS011;15906;52.046;4.724;2022-12-29T00:11:14;3.63;;;1.38;;
27539;SDS011;15906;52.046;4.724;2022-12-29T00:13:41;4.55;;;1.50;;
27539;SDS011;15906;52.046;4.724;2022-12-29T00:16:26;1.85;;;1.10;;
27539;SDS011;15906;52.046;4.724;2022-12-29T00:18:52;1.70;;;1.40;;
27539;SDS011;15906;52.046;4.724;2022-12-29T00:21:19;2.10;;;1.50;;
27539;SDS011;15906;52.046;4.724;2022-12-29T00:24:05;3.50;;;1.60;;
27539;SDS011;15906;52.046;4.724;2022-12-29T00:29:47;4.53;;;2.08;;
27539;SDS011;15906;52.046;4.724;2022-12-29T00:32:32;2.30;;;1.52;;
27539;SDS011;15906;52.046;4.724;2022-12-29T00:35:33;2.78;;;1.55;;
27539;SDS011;15906;52.046;4.724;2022-12-29T00:38:05;3.03;;;1.75;;
27539;SDS011;15906;52.046;4.724;2022-12-29T00:40:51;2.80;;;1.70;;
27539;SDS011;15906;52.046;4.724;2022-12-29T00:43:35;3.15;;;1.60;;
27539;SDS011;15906;52.046;4.724;2022-12-29T00:46:20;1.60;;;1.40;;
27539;SDS011;15906;52.046;4.724;2022-12-29T00:48:45;3.00;;;1.38;;
27539;SDS011;15906;52.046;4.724;2022-12-29T00:51:29;2.78;;;1.52;;
27539;SDS011;15906;52.046;4.724;2022-12-29T00:53:55;4.32;;;1.40;;
27539;SDS011;15906;52.046;4.724;2022-12-29T00:56:20;4.07;;;2.08;;
27539;SDS011;15906;52.046;4.724;2022-12-29T00:58:46;2.55;;;1.52;;
27539;SDS011;15906;52.046;4.724;2022-12-29T01:01:11;1.92;;;1.63;;
27539;SDS011;15906;52.046;4.724;2022-12-29T01:03:37;2.58;;;1.50;;
27539;SDS011;15906;52.046;4.724;2022-12-29T01:06:03;2.78;;;1.83;;
27539;SDS011;15906;52.046;4.724;2022-12-29T01:08:31;3.28;;;1.55;;
27539;SDS011;15906;52.046;4.724;2022-12-29T01:11:00;3.83;;;1.80;;
27539;SDS011;15906;52.046;4.724;2022-12-29T01:13:28;2.65;;;1.50;;
27539;SDS011;15906;52.046;4.724;2022-12-29T01:15:54;4.57;;;1.65;;
27539;SDS011;15906;52.046;4.724;2022-12-29T01:18:20;2.63;;;1.77;;
27539;SDS011;15906;52.046;4.724;2022-12-29T01:20:47;1.90;;;1.70;;
27539;SDS011;15906;52.046;4.724;2022-12-29T01:23:13;2.83;;;2.00;;
27539;SDS011;15906;52.046;4.724;2022-12-29T01:25:38;4.40;;;2.17;;
27539;SDS011;15906;52.046;4.724;2022-12-29T01:28:04;3.42;;;2.72;;
27539;SDS011;15906;52.046;4.724;2022-12-29T01:30:30;3.53;;;1.60;;
27539;SDS011;15906;52.046;4.724;2022-12-29T01:32:57;3.35;;;2.00;;
27539;SDS011;15906;52.046;4.724;2022-12-29T01:35:22;1.98;;;1.77;;
27539;SDS011;15906;52.046;4.724;2022-12-29T01:37:48;2.58;;;1.70;;
27539;SDS011;15906;52.046;4.724;2022-12-29T01:40:13;1.67;;;1.50;;
27539;SDS011;15906;52.046;4.724;2022-12-29T01:42:39;3.67;;;2.10;;
27539;SDS011;15906;52.046;4.724;2022-12-29T01:45:14;3.03;;;1.60;;
27539;SDS011;15906;52.046;4.724;2022-12-29T01:47:51;3.10;;;1.73;;
27539;SDS011;15906;52.046;4.724;2022-12-29T01:50:25;3.83;;;1.70;;
27539;SDS011;15906;52.046;4.724;2022-12-29T01:52:56;3.03;;;2.10;;
27539;SDS011;15906;52.046;4.724;2022-12-29T01:55:23;2.47;;;1.77;;
27539;SDS011;15906;52.046;4.724;2022-12-29T01:57:55;2.00;;;1.70;;
27539;SDS011;15906;52.046;4.724;2022-12-29T02:00:26;3.72;;;1.58;;
27539;SDS011;15906;52.046;4.724;2022-12-29T02:02:52;5.68;;;1.80;;
27539;SDS011;15906;52.046;4.724;2022-12-29T02:05:29;3.78;;;1.50;;
27539;SDS011;15906;52.046;4.724;2022-12-29T02:07:59;5.15;;;1.50;;
27539;SDS011;15906;52.046;4.724;2022-12-29T02:10:26;5.38;;;1.38;;
27539;SDS011;15906;52.046;4.724;2022-12-29T02:12:55;6.00;;;1.20;;
27539;SDS011;15906;52.046;4.724;2022-12-29T02:15:23;5.28;;;1.38;;
27539;SDS011;15906;52.046;4.724;2022-12-29T02:21:22;5.03;;;1.67;;
27539;SDS011;15906;52.046;4.724;2022-12-29T02:24:37;3.65;;;1.10;;
27539;SDS011;15906;52.046;4.724;2022-12-29T02:35:34;5.07;;;1.60;;
27539;SDS011;15906;52.046;4.724;2022-12-29T02:38:19;4.90;;;1.70;;
27539;SDS011;15906;52.046;4.724;2022-12-29T02:43:37;5.05;;;1.60;;
27539;SDS011;15906;52.046;4.724;2022-12-29T02:46:26;9.77;;;1.30;;
27539;SDS011;15906;52.046;4.724;2022-12-29T02:49:15;5.35;;;1.00;;
27539;SDS011;15906;52.046;4.724;2022-12-29T02:54:19;5.50;;;1.33;;
27539;SDS011;15906;52.046;4.724;2022-12-29T02:57:14;6.13;;;1.10;;
27539;SDS011;15906;52.046;4.724;2022-12-29T02:59:46;8.77;;;1.85;;
27539;SDS011;15906;52.046;4.724;2022-12-29T03:19:07;8.40;;;1.80;;
27539;SDS011;15906;52.046;4.724;2022-12-29T03:22:03;10.10;;;2.13;;
27539;SDS011;15906;52.046;4.724;2022-12-29T03:25:01;7.78;;;1.33;;
27539;SDS011;15906;52.046;4.724;2022-12-29T03:27:34;5.90;;;1.35;;
27539;SDS011;15906;52.046;4.724;2022-12-29T03:30:07;6.35;;;1.38;;
27539;SDS011;15906;52.046;4.724;2022-12-29T03:35:14;5.82;;;1.20;;
27539;SDS011;15906;52.046;4.724;2022-12-29T03:40:36;9.60;;;1.50;;
27539;SDS011;15906;52.046;4.724;2022-12-29T03:43:04;6.32;;;1.10;;
27539;SDS011;15906;52.046;4.724;2022-12-29T03:45:30;4.13;;;1.27;;
27539;SDS011;15906;52.046;4.724;2022-12-29T03:47:56;6.55;;;1.13;;
27539;SDS011;15906;52.046;4.724;2022-12-29T03:50:21;5.85;;;1.17;;
27539;SDS011;15906;52.046;4.724;2022-12-29T03:52:47;4.95;;;0.90;;
27539;SDS011;15906;52.046;4.724;2022-12-29T03:55:12;5.60;;;1.02;;
27539;SDS011;15906;52.046;4.724;2022-12-29T03:57:38;6.45;;;1.30;;
27539;SDS011;15906;52.046;4.724;2022-12-29T04:00:04;6.55;;;1.20;;
27539;SDS011;15906;52.046;4.724;2022-12-29T04:02:31;5.22;;;1.27;;
27539;SDS011;15906;52.046;4.724;2022-12-29T04:04:56;9.85;;;1.20;;
27539;SDS011;15906;52.046;4.724;2022-12-29T04:07:22;7.97;;;1.10;;
27539;SDS011;15906;52.046;4.724;2022-12-29T04:09:47;6.43;;;1.30;;
27539;SDS011;15906;52.046;4.724;2022-12-29T04:12:13;7.07;;;1.33;;
27539;SDS011;15906;52.046;4.724;2022-12-29T04:14:39;3.20;;;1.45;;
27539;SDS011;15906;52.046;4.724;2022-12-29T04:17:05;4.22;;;1.10;;
27539;SDS011;15906;52.046;4.724;2022-12-29T04:19:31;10.20;;;1.80;;
27539;SDS011;15906;52.046;4.724;2022-12-29T04:21:56;5.70;;;1.80;;
27539;SDS011;15906;52.046;4.724;2022-12-29T04:24:22;8.48;;;1.50;;
27539;SDS011;15906;52.046;4.724;2022-12-29T04:26:47;11.63;;;1.75;;
27539;SDS011;15906;52.046;4.724;2022-12-29T04:29:13;8.68;;;1.80;;
27539;SDS011;15906;52.046;4.724;2022-12-29T04:31:38;11.20;;;1.67;;
27539;SDS011;15906;52.046;4.724;2022-12-29T04:34:04;10.20;;;2.03;;
27539;SDS011;15906;52.046;4.724;2022-12-29T04:36:29;8.73;;;1.75;;
27539;SDS011;15906;52.046;4.724;2022-12-29T04:38:55;9.27;;;1.40;;
27539;SDS011;15906;52.046;4.724;2022-12-29T04:41:20;11.65;;;1.67;;
27539;SDS011;15906;52.046;4.724;2022-12-29T04:43:46;8.27;;;1.60;;
27539;SDS011;15906;52.046;4.724;2022-12-29T04:46:11;4.80;;;1.20;;
27539;SDS011;15906;52.046;4.724;2022-12-29T04:48:37;7.10;;;1.58;;
27539;SDS011;15906;52.046;4.724;2022-12-29T04:51:02;6.38;;;1.60;;
27539;SDS011;15906;52.046;4.724;2022-12-29T04:53:28;9.90;;;2.42;;
27539;SDS011;15906;52.046;4.724;2022-12-29T04:55:54;7.65;;;1.80;;
27539;SDS011;15906;52.046;4.724;2022-12-29T04:58:20;11.98;;;2.50;;
27539;SDS011;15906;52.046;4.724;2022-12-29T05:00:45;13.95;;;2.42;;
27539;SDS011;15906;52.046;4.724;2022-12-29T05:03:11;10.38;;;2.22;;
27539;SDS011;15906;52.046;4.724;2022-12-29T05:05:36;10.65;;;2.35;;
27539;SDS011;15906;52.046;4.724;2022-12-29T05:08:02;7.70;;;1.63;;
27539;SDS011;15906;52.046;4.724;2022-12-29T05:10:28;8.55;;;1.85;;
27539;SDS011;15906;52.046;4.724;2022-12-29T05:12:53;14.20;;;2.53;;
27539;SDS011;15906;52.046;4.724;2022-12-29T05:15:19;16.27;;;2.40;;
27539;SDS011;15906;52.046;4.724;2022-12-29T05:17:44;8.90;;;1.88;;
27539;SDS011;15906;52.046;4.724;2022-12-29T05:20:10;8.32;;;2.17;;
27539;SDS011;15906;52.046;4.724;2022-12-29T05:22:36;10.20;;;2.08;;
27539;SDS011;15906;52.046;4.724;2022-12-29T05:25:02;12.30;;;1.90;;
27539;SDS011;15906;52.046;4.724;2022-12-29T05:27:28;11.48;;;2.10;;
27539;SDS011;15906;52.046;4.724;2022-12-29T05:29:53;11.85;;;1.65;;
27539;SDS011;15906;52.046;4.724;2022-12-29T05:32:19;13.80;;;2.72;;
27539;SDS011;15906;52.046;4.724;2022-12-29T05:34:45;9.27;;;1.73;;
27539;SDS011;15906;52.046;4.724;2022-12-29T05:37:10;10.85;;;2.38;;
27539;SDS011;15906;52.046;4.724;2022-12-29T05:39:36;9.65;;;2.00;;
27539;SDS011;15906;52.046;4.724;2022-12-29T05:42:01;10.57;;;2.35;;
27539;SDS011;15906;52.046;4.724;2022-12-29T05:44:27;10.73;;;2.67;;
27539;SDS011;15906;52.046;4.724;2022-12-29T05:46:52;15.57;;;2.20;;
27539;SDS011;15906;52.046;4.724;2022-12-29T05:49:18;8.93;;;1.60;;
27539;SDS011;15906;52.046;4.724;2022-12-29T05:51:44;15.18;;;2.08;;
27539;SDS011;15906;52.046;4.724;2022-12-29T05:54:09;8.43;;;1.77;;
27539;SDS011;15906;52.046;4.724;2022-12-29T05:56:35;14.20;;;2.22;;
27539;SDS011;15906;52.046;4.724;2022-12-29T05:59:00;18.73;;;2.58;;
27539;SDS011;15906;52.046;4.724;2022-12-29T06:01:26;14.43;;;2.28;;
27539;SDS011;15906;52.046;4.724;2022-12-29T06:03:51;13.60;;;2.22;;
27539;SDS011;15906;52.046;4.724;2022-12-29T06:06:17;14.68;;;2.42;;
27539;SDS011;15906;52.046;4.724;2022-12-29T06:08:42;21.10;;;3.05;;
27539;SDS011;15906;52.046;4.724;2022-12-29T06:11:08;17.60;;;2.28;;
27539;SDS011;15906;52.046;4.724;2022-12-29T06:13:33;15.32;;;2.90;;
27539;SDS011;15906;52.046;4.724;2022-12-29T06:15:59;17.38;;;2.50;;
27539;SDS011;15906;52.046;4.724;2022-12-29T06:18:24;9.10;;;2.42;;
27539;SDS011;15906;52.046;4.724;2022-12-29T06:20:50;16.15;;;2.70;;
27539;SDS011;15906;52.046;4.724;2022-12-29T06:23:15;14.43;;;2.65;;
27539;SDS011;15906;52.046;4.724;2022-12-29T06:25:43;14.63;;;2.58;;
27539;SDS011;15906;52.046;4.724;2022-12-29T06:28:08;18.80;;;3.33;;
27539;SDS011;15906;52.046;4.724;2022-12-29T06:30:35;13.55;;;3.17;;
27539;SDS011;15906;52.046;4.724;2022-12-29T06:33:01;14.88;;;2.85;;
27539;SDS011;15906;52.046;4.724;2022-12-29T06:35:27;12.07;;;3.05;;
27539;SDS011;15906;52.046;4.724;2022-12-29T06:37:52;15.63;;;2.55;;
27539;SDS011;15906;52.046;4.724;2022-12-29T06:40:18;18.20;;;2.85;;
27539;SDS011;15906;52.046;4.724;2022-12-29T06:42:43;15.30;;;2.42;;
27539;SDS011;15906;52.046;4.724;2022-12-29T06:45:09;15.43;;;2.30;;
27539;SDS011;15906;52.046;4.724;2022-12-29T06:47:35;21.15;;;3.30;;
27539;SDS011;15906;52.046;4.724;2022-12-29T06:50:00;17.52;;;2.53;;
27539;SDS011;15906;52.046;4.724;2022-12-29T06:52:26;16.35;;;2.30;;
27539;SDS011;15906;52.046;4.724;2022-12-29T06:54:53;13.20;;;2.17;;
27539;SDS011;15906;52.046;4.724;2022-12-29T06:57:19;16.85;;;2.03;;
27539;SDS011;15906;52.046;4.724;2022-12-29T06:59:44;13.02;;;2.20;;
27539;SDS011;15906;52.046;4.724;2022-12-29T07:02:10;11.35;;;2.38;;
27539;SDS011;15906;52.046;4.724;2022-12-29T07:04:36;11.05;;;2.38;;
27539;SDS011;15906;52.046;4.724;2022-12-29T07:07:01;13.40;;;1.77;;
27539;SDS011;15906;52.046;4.724;2022-12-29T07:09:27;9.43;;;1.45;;
27539;SDS011;15906;52.046;4.724;2022-12-29T07:11:52;14.80;;;2.55;;
27539;SDS011;15906;52.046;4.724;2022-12-29T07:14:18;9.75;;;1.42;;
27539;SDS011;15906;52.046;4.724;2022-12-29T07:16:43;9.02;;;1.98;;
27539;SDS011;15906;52.046;4.724;2022-12-29T07:19:09;10.95;;;2.30;;
27539;SDS011;15906;52.046;4.724;2022-12-29T07:21:34;5.68;;;1.73;;
27539;SDS011;15906;52.046;4.724;2022-12-29T07:24:00;8.15;;;2.30;;
27539;SDS011;15906;52.046;4.724;2022-12-29T07:26:26;13.27;;;2.10;;
27539;SDS011;15906;52.046;4.724;2022-12-29T07:28:51;13.95;;;1.88;;
27539;SDS011;15906;52.046;4.724;2022-12-29T07:31:18;7.47;;;1.60;;
27539;SDS011;15906;52.046;4.724;2022-12-29T07:33:45;12.75;;;2.75;;
27539;SDS011;15906;52.046;4.724;2022-12-29T07:36:11;11.00;;;2.30;;
27539;SDS011;15906;52.046;4.724;2022-12-29T07:38:37;12.48;;;2.63;;
27539;SDS011;15906;52.046;4.724;2022-12-29T07:41:03;12.75;;;2.15;;
27539;SDS011;15906;52.046;4.724;2022-12-29T07:43:29;17.52;;;2.70;;
27539;SDS011;15906;52.046;4.724;2022-12-29T07:45:54;16.65;;;2.55;;
27539;SDS011;15906;52.046;4.724;2022-12-29T07:48:20;11.85;;;2.25;;
27539;SDS011;15906;52.046;4.724;2022-12-29T07:50:46;9.05;;;3.08;;
27539;SDS011;15906;52.046;4.724;2022-12-29T07:53:12;13.07;;;2.60;;
27539;SDS011;15906;52.046;4.724;2022-12-29T07:55:37;9.23;;;2.50;;
27539;SDS011;15906;52.046;4.724;2022-12-29T07:58:03;10.07;;;2.03;;
27539;SDS011;15906;52.046;4.724;2022-12-29T08:00:28;19.80;;;2.85;;
27539;SDS011;15906;52.046;4.724;2022-12-29T08:02:54;19.17;;;2.15;;
27539;SDS011;15906;52.046;4.724;2022-12-29T08:05:19;13.40;;;3.55;;
27539;SDS011;15906;52.046;4.724;2022-12-29T08:07:45;16.70;;;2.65;;
27539;SDS011;15906;52.046;4.724;2022-12-29T08:10:12;17.42;;;2.65;;
27539;SDS011;15906;52.046;4.724;2022-12-29T08:12:38;12.85;;;2.63;;
27539;SDS011;15906;52.046;4.724;2022-12-29T08:15:04;14.90;;;2.58;;
27539;SDS011;15906;52.046;4.724;2022-12-29T08:17:31;13.68;;;2.30;;
27539;SDS011;15906;52.046;4.724;2022-12-29T08:19:57;14.50;;;2.85;;
27539;SDS011;15906;52.046;4.724;2022-12-29T08:22:23;18.13;;;3.25;;
27539;SDS011;15906;52.046;4.724;2022-12-29T08:24:48;23.95;;;3.63;;
27539;SDS011;15906;52.046;4.724;2022-12-29T08:27:14;11.35;;;2.47;;
27539;SDS011;15906;52.046;4.724;2022-12-29T08:29:40;18.35;;;2.67;;
27539;SDS011;15906;52.046;4.724;2022-12-29T08:32:05;9.52;;;1.60;;
27539;SDS011;15906;52.046;4.724;2022-12-29T08:34:31;22.05;;;2.45;;
27539;SDS011;15906;52.046;4.724;2022-12-29T08:36:57;22.60;;;2.80;;
27539;SDS011;15906;52.046;4.724;2022-12-29T08:39:23;16.00;;;2.92;;
27539;SDS011;15906;52.046;4.724;2022-12-29T08:41:48;20.75;;;2.95;;
27539;SDS011;15906;52.046;4.724;2022-12-29T08:44:14;12.88;;;2.58;;
27539;SDS011;15906;52.046;4.724;2022-12-29T08:46:39;20.75;;;3.38;;
27539;SDS011;15906;52.046;4.724;2022-12-29T08:49:05;20.50;;;2.75;;
27539;SDS011;15906;52.046;4.724;2022-12-29T08:51:30;18.98;;;3.20;;
27539;SDS011;15906;52.046;4.724;2022-12-29T08:53:56;14.57;;;2.58;;
27539;SDS011;15906;52.046;4.724;2022-12-29T08:56:21;20.85;;;2.83;;
27539;SDS011;15906;52.046;4.724;2022-12-29T08:58:48;13.15;;;2.72;;
27539;SDS011;15906;52.046;4.724;2022-12-29T09:01:14;14.90;;;3.80;;
27539;SDS011;15906;52.046;4.724;2022-12-29T09:03:40;7.57;;;2.25;;
27539;SDS011;15906;52.046;4.724;2022-12-29T09:06:05;18.25;;;2.55;;
27539;SDS011;15906;52.046;4.724;2022-12-29T09:08:31;12.90;;;2.03;;
27539;SDS011;15906;52.046;4.724;2022-12-29T09:11:05;14.70;;;2.63;;
27539;SDS011;15906;52.046;4.724;2022-12-29T09:13:34;14.50;;;2.40;;
27539;SDS011;15906;52.046;4.724;2022-12-29T09:16:00;11.82;;;2.20;;
27539;SDS011;15906;52.046;4.724;2022-12-29T09:18:26;10.52;;;1.95;;
27539;SDS011;15906;52.046;4.724;2022-12-29T09:20:58;10.95;;;2.00;;
27539;SDS011;15906;52.046;4.724;2022-12-29T09:23:25;11.52;;;2.67;;
27539;SDS011;15906;52.046;4.724;2022-12-29T09:25:51;11.65;;;2.72;;
27539;SDS011;15906;52.046;4.724;2022-12-29T09:28:17;12.35;;;2.53;;
27539;SDS011;15906;52.046;4.724;2022-12-29T09:30:43;12.02;;;2.42;;
27539;SDS011;15906;52.046;4.724;2022-12-29T09:33:08;15.25;;;2.83;;
27539;SDS011;15906;52.046;4.724;2022-12-29T09:35:34;14.32;;;3.53;;
27539;SDS011;15906;52.046;4.724;2022-12-29T09:38:00;16.20;;;3.03;;
27539;SDS011;15906;52.046;4.724;2022-12-29T09:40:30;16.42;;;2.90;;
27539;SDS011;15906;52.046;4.724;2022-12-29T09:43:03;16.13;;;2.75;;
27539;SDS011;15906;52.046;4.724;2022-12-29T09:45:41;10.15;;;2.47;;
27539;SDS011;15906;52.046;4.724;2022-12-29T09:48:21;13.63;;;2.80;;
27539;SDS011;15906;52.046;4.724;2022-12-29T09:50:52;17.58;;;3.22;;
27539;SDS011;15906;52.046;4.724;2022-12-29T09:53:27;25.00;;;3.28;;
27539;SDS011;15906;52.046;4.724;2022-12-29T09:55:59;15.63;;;3.13;;
27539;SDS011;15906;52.046;4.724;2022-12-29T09:58:37;16.23;;;3.20;;
27539;SDS011;15906;52.046;4.724;2022-12-29T10:01:14;16.58;;;2.88;;
27539;SDS011;15906;52.046;4.724;2022-12-29T10:04:06;14.88;;;3.00;;
27539;SDS011;15906;52.046;4.724;2022-12-29T10:12:03;13.15;;;3.00;;
27539;SDS011;15906;52.046;4.724;2022-12-29T10:20:16;20.95;;;3.08;;
27539;SDS011;15906;52.046;4.724;2022-12-29T10:23:02;19.23;;;3.58;;
27539;SDS011;15906;52.046;4.724;2022-12-29T10:25:37;15.07;;;4.20;;
27539;SDS011;15906;52.046;4.724;2022-12-29T10:28:06;18.20;;;3.83;;
27539;SDS011;15906;52.046;4.724;2022-12-29T10:30:49;25.67;;;4.35;;
27539;SDS011;15906;52.046;4.724;2022-12-29T10:33:30;19.85;;;3.42;;
27539;SDS011;15906;52.046;4.724;2022-12-29T10:36:02;23.48;;;4.55;;
27539;SDS011;15906;52.046;4.724;2022-12-29T10:41:47;17.52;;;4.22;;
27539;SDS011;15906;52.046;4.724;2022-12-29T10:44:19;32.83;;;4.63;;
27539;SDS011;15906;52.046;4.724;2022-12-29T10:46:54;20.80;;;3.85;;
27539;SDS011;15906;52.046;4.724;2022-12-29T10:49:24;21.10;;;3.78;;
27539;SDS011;15906;52.046;4.724;2022-12-29T10:51:51;26.30;;;4.65;;
27539;SDS011;15906;52.046;4.724;2022-12-29T10:54:45;26.00;;;4.47;;
27539;SDS011;15906;52.046;4.724;2022-12-29T10:57:09;26.80;;;5.47;;
27539;SDS011;15906;52.046;4.724;2022-12-29T10:59:41;33.05;;;5.00;;
27539;SDS011;15906;52.046;4.724;2022-12-29T11:07:10;25.23;;;4.30;;
27539;SDS011;15906;52.046;4.724;2022-12-29T11:09:37;17.95;;;3.15;;
27539;SDS011;15906;52.046;4.724;2022-12-29T11:12:24;24.73;;;3.97;;
27539;SDS011;15906;52.046;4.724;2022-12-29T11:15:02;28.95;;;3.83;;
27539;SDS011;15906;52.046;4.724;2022-12-29T11:17:45;30.23;;;4.97;;
27539;SDS011;15906;52.046;4.724;2022-12-29T11:20:19;25.20;;;4.75;;
27539;SDS011;15906;52.046;4.724;2022-12-29T11:22:51;17.92;;;3.03;;
27539;SDS011;15906;52.046;4.724;2022-12-29T11:25:17;23.95;;;3.92;;
27539;SDS011;15906;52.046;4.724;2022-12-29T11:27:54;23.60;;;3.97;;
27539;SDS011;15906;52.046;4.724;2022-12-29T11:30:41;22.00;;;4.40;;
27539;SDS011;15906;52.046;4.724;2022-12-29T11:33:08;22.70;;;4.07;;
27539;SDS011;15906;52.046;4.724;2022-12-29T11:38:15;27.25;;;4.55;;
27539;SDS011;15906;52.046;4.724;2022-12-29T11:40:51;25.52;;;5.15;;
27539;SDS011;15906;52.046;4.724;2022-12-29T11:43:21;27.55;;;4.72;;
27539;SDS011;15906;52.046;4.724;2022-12-29T11:45:54;23.92;;;4.45;;
27539;SDS011;15906;52.046;4.724;2022-12-29T11:48:21;26.23;;;3.80;;
27539;SDS011;15906;52.046;4.724;2022-12-29T11:50:51;21.70;;;3.10;;
27539;SDS011;15906;52.046;4.724;2022-12-29T11:53:23;30.15;;;4.00;;
27539;SDS011;15906;52.046;4.724;2022-12-29T11:58:21;18.10;;;3.67;;
27539;SDS011;15906;52.046;4.724;2022-12-29T12:01:01;18.08;;;2.50;;
27539;SDS011;15906;52.046;4.724;2022-12-29T12:04:01;16.48;;;2.53;;
27539;SDS011;15906;52.046;4.724;2022-12-29T12:06:33;21.85;;;4.75;;
27539;SDS011;15906;52.046;4.724;2022-12-29T12:09:02;21.00;;;3.97;;
27539;SDS011;15906;52.046;4.724;2022-12-29T12:11:34;20.20;;;3.42;;
27539;SDS011;15906;52.046;4.724;2022-12-29T12:14:11;23.30;;;5.53;;
27539;SDS011;15906;52.046;4.724;2022-12-29T12:19:15;21.05;;;3.38;;
27539;SDS011;15906;52.046;4.724;2022-12-29T12:21:59;27.35;;;3.97;;
27539;SDS011;15906;52.046;4.724;2022-12-29T12:25:23;16.25;;;3.15;;
27539;SDS011;15906;52.046;4.724;2022-12-29T12:27:51;17.33;;;3.50;;
27539;SDS011;15906;52.046;4.724;2022-12-29T12:30:19;19.77;;;2.65;;
27539;SDS011;15906;52.046;4.724;2022-12-29T12:35:23;13.95;;;2.60;;
27539;SDS011;15906;52.046;4.724;2022-12-29T12:38:08;20.08;;;2.92;;
27539;SDS011;15906;52.046;4.724;2022-12-29T12:43:42;21.33;;;7.60;;
27539;SDS011;15906;52.046;4.724;2022-12-29T12:49:21;18.77;;;3.35;;
27539;SDS011;15906;52.046;4.724;2022-12-29T12:52:11;13.30;;;3.13;;
27539;SDS011;15906;52.046;4.724;2022-12-29T12:55:06;15.55;;;2.00;;
27539;SDS011;15906;52.046;4.724;2022-12-29T13:00:19;13.90;;;2.33;;
27539;SDS011;15906;52.046;4.724;2022-12-29T13:05:38;15.68;;;2.50;;
27539;SDS011;15906;52.046;4.724;2022-12-29T13:16:27;28.38;;;3.45;;
27539;SDS011;15906;52.046;4.724;2022-12-29T13:19:04;18.52;;;3.67;;
27539;SDS011;15906;52.046;4.724;2022-12-29T13:21:47;10.70;;;2.25;;
27539;SDS011;15906;52.046;4.724;2022-12-29T13:24:32;17.50;;;2.80;;
27539;SDS011;15906;52.046;4.724;2022-12-29T13:27:21;13.95;;;2.20;;
27539;SDS011;15906;52.046;4.724;2022-12-29T13:30:12;13.38;;;2.55;;
27539;SDS011;15906;52.046;4.724;2022-12-29T13:35:22;14.65;;;2.80;;
27539;SDS011;15906;52.046;4.724;2022-12-29T13:38:11;18.52;;;3.05;;
27539;SDS011;15906;52.046;4.724;2022-12-29T13:40:44;20.45;;;5.35;;
27539;SDS011;15906;52.046;4.724;2022-12-29T13:43:12;18.90;;;3.33;;
27539;SDS011;15906;52.046;4.724;2022-12-29T13:45:40;14.25;;;3.75;;
27539;SDS011;15906;52.046;4.724;2022-12-29T13:48:15;16.85;;;4.13;;
27539;SDS011;15906;52.046;4.724;2022-12-29T13:50:46;13.05;;;4.10;;
27539;SDS011;15906;52.046;4.724;2022-12-29T13:53:27;14.10;;;3.00;;
27539;SDS011;15906;52.046;4.724;2022-12-29T13:56:19;9.40;;;3.00;;
27539;SDS011;15906;52.046;4.724;2022-12-29T13:58:53;10.30;;;3.42;;
27539;SDS011;15906;52.046;4.724;2022-12-29T14:03:55;9.00;;;1.75;;
27539;SDS011;15906;52.046;4.724;2022-12-29T14:08:49;3.90;;;1.02;;
27539;SDS011;15906;52.046;4.724;2022-12-29T14:11:43;4.78;;;1.13;;
27539;SDS011;15906;52.046;4.724;2022-12-29T14:16:50;7.95;;;2.00;;
27539;SDS011;15906;52.046;4.724;2022-12-29T14:19:17;5.82;;;2.25;;
27539;SDS011;15906;52.046;4.724;2022-12-29T14:21:59;9.38;;;2.05;;
27539;SDS011;15906;52.046;4.724;2022-12-29T14:34:45;11.00;;;2.88;;
27539;SDS011;15906;52.046;4.724;2022-12-29T14:37:56;11.40;;;2.85;;
27539;SDS011;15906;52.046;4.724;2022-12-29T14:42:29;14.32;;;4.07;;
27539;SDS011;15906;52.046;4.724;2022-12-29T14:45:05;15.73;;;2.78;;
27539;SDS011;15906;52.046;4.724;2022-12-29T14:47:49;15.23;;;2.70;;
27539;SDS011;15906;52.046;4.724;2022-12-29T14:50:22;16.35;;;2.47;;
27539;SDS011;15906;52.046;4.724;2022-12-29T14:52:54;13.57;;;2.92;;
27539;SDS011;15906;52.046;4.724;2022-12-29T14:58:04;11.13;;;2.95;;
27539;SDS011;15906;52.046;4.724;2022-12-29T15:00:33;13.55;;;2.53;;
27539;SDS011;15906;52.046;4.724;2022-12-29T15:03:06;14.50;;;3.03;;
27539;SDS011;15906;52.046;4.724;2022-12-29T15:08:39;14.15;;;2.35;;
27539;SDS011;15906;52.046;4.724;2022-12-29T15:11:14;11.25;;;2.42;;
27539;SDS011;15906;52.046;4.724;2022-12-29T15:13:43;14.45;;;2.22;;
27539;SDS011;15906;52.046;4.724;2022-12-29T15:16:22;12.07;;;2.85;;
27539;SDS011;15906;52.046;4.724;2022-12-29T15:18:48;15.82;;;3.67;;
27539;SDS011;15906;52.046;4.724;2022-12-29T15:21:14;15.95;;;3.90;;
27539;SDS011;15906;52.046;4.724;2022-12-29T15:23:41;11.73;;;2.45;;
27539;SDS011;15906;52.046;4.724;2022-12-29T15:26:09;11.30;;;2.30;;
27539;SDS011;15906;52.046;4.724;2022-12-29T15:28:37;9.10;;;2.13;;
27539;SDS011;15906;52.046;4.724;2022-12-29T15:31:20;9.90;;;2.25;;
27539;SDS011;15906;52.046;4.724;2022-12-29T15:33:49;11.10;;;2.30;;
27539;SDS011;15906;52.046;4.724;2022-12-29T15:36:26;12.57;;;2.10;;
27539;SDS011;15906;52.046;4.724;2022-12-29T15:38:53;15.60;;;3.35;;
27539;SDS011;15906;52.046;4.724;2022-12-29T15:41:40;11.15;;;2.78;;
27539;SDS011;15906;52.046;4.724;2022-12-29T15:44:36;12.07;;;2.60;;
27539;SDS011;15906;52.046;4.724;2022-12-29T15:47:25;16.05;;;3.53;;
27539;SDS011;15906;52.046;4.724;2022-12-29T15:50:04;15.32;;;2.88;;
27539;SDS011;15906;52.046;4.724;2022-12-29T15:52:33;16.92;;;4.22;;
27539;SDS011;15906;52.046;4.724;2022-12-29T15:54:59;10.45;;;2.53;;
27539;SDS011;15906;52.046;4.724;2022-12-29T15:57:30;13.80;;;2.72;;
27539;SDS011;15906;52.046;4.724;2022-12-29T16:00:02;13.52;;;2.90;;
27539;SDS011;15906;52.046;4.724;2022-12-29T16:02:29;15.30;;;3.13;;
27539;SDS011;15906;52.046;4.724;2022-12-29T16:04:55;17.02;;;2.65;;
27539;SDS011;15906;52.046;4.724;2022-12-29T16:07:23;10.15;;;2.67;;
27539;SDS011;15906;52.046;4.724;2022-12-29T16:09:58;9.80;;;2.45;;
27539;SDS011;15906;52.046;4.724;2022-12-29T16:12:28;8.60;;;2.88;;
27539;SDS011;15906;52.046;4.724;2022-12-29T16:14:57;14.45;;;3.72;;
27539;SDS011;15906;52.046;4.724;2022-12-29T16:17:27;13.45;;;3.88;;
27539;SDS011;15906;52.046;4.724;2022-12-29T16:20:03;13.45;;;4.43;;
27539;SDS011;15906;52.046;4.724;2022-12-29T16:22:39;12.32;;;2.88;;
27539;SDS011;15906;52.046;4.724;2022-12-29T16:25:17;11.70;;;2.03;;
27539;SDS011;15906;52.046;4.724;2022-12-29T16:28:02;11.20;;;1.80;;
27539;SDS011;15906;52.046;4.724;2022-12-29T16:30:39;12.48;;;2.13;;
27539;SDS011;15906;52.046;4.724;2022-12-29T16:33:05;10.80;;;2.53;;
27539;SDS011;15906;52.046;4.724;2022-12-29T16:41:01;9.80;;;2.42;;
27539;SDS011;15906;52.046;4.724;2022-12-29T16:43:31;12.82;;;2.15;;
27539;SDS011;15906;52.046;4.724;2022-12-29T16:48:25;9.73;;;1.92;;
27539;SDS011;15906;52.046;4.724;2022-12-29T16:51:17;11.45;;;2.28;;
27539;SDS011;15906;52.046;4.724;2022-12-29T16:53:48;12.85;;;3.08;;
27539;SDS011;15906;52.046;4.724;2022-12-29T16:56:19;14.35;;;2.30;;
27539;SDS011;15906;52.046;4.724;2022-12-29T16:58:49;15.60;;;3.55;;
27539;SDS011;15906;52.046;4.724;2022-12-29T17:01:19;17.35;;;3.92;;
27539;SDS011;15906;52.046;4.724;2022-12-29T17:03:52;21.15;;;3.47;;
27539;SDS011;15906;52.046;4.724;2022-12-29T17:06:22;14.70;;;3.53;;
27539;SDS011;15906;52.046;4.724;2022-12-29T17:08:48;14.18;;;2.60;;